Terminal Aerodrome Forecast
Issued by NWS Blacksburg, VA

Home | Current Version | Previous Version | Text Only | Print | Product List | Glossary On
Versions: 1 2 3 4 5 6 7 8 9 10 11 12 13 14
000
FTUS41 KRNK 281150
TAFROA
TAF
KROA 281150Z 2812/0112 VRB03KT P6SM SCT250
     FM281600 16005KT P6SM BKN100 BKN250
     FM282100 17006KT P6SM VCSH OVC045
     FM282300 17006KT P6SM VCSH BKN025 OVC045
     FM010200 21004KT 5SM -RA BR BKN005 OVC010
     FM010700 20005KT 4SM -DZ BR BKN003 OVC007 WS020/22035KT=

USA.gov is the U.S. government's official web portal to all federal, state and local government web resources and services.